Terminal Aerodrome Forecast
Issued by NWS Knoxville/Tri Cities, TN

Home | Current Version | Previous Version | Text Only | Print | Product List | Glossary On
Versions: 1 2 3 4 5 6 7 8 9 10 11 12 13 14 15
000
FTUS44 KMRX 010523
TAFTYS
TAF
KTYS 010523Z 0106/0206 VRB02KT P6SM SCT150
     FM011300 22005KT P6SM FEW040 SCT150
     FM011900 24007KT P6SM SCT070 SCT150 BKN200
     FM020100 VRB03KT P6SM FEW070 BKN150=

USA.gov is the U.S. government's official web portal to all federal, state and local government web resources and services.